Time;durP1;ratioP1;P1;durP2;ratioP2;P2;SDS_P1;SDS_P2;PMS_P1;PMS_P2;Temp;Humidity;BMP_temperature;BMP_pressure;BME280_temperature;BME280_humidity;BME280_pressure;Samples;Min_cycle;Max_cycle;Signal;HPM_P1;HPM_P2
2022/12/27 00:00:16;;;;;;;;;;;5.60;99.90;;;;;;7338380;19;111199;-84
2022/12/27 00:02:43;;;;;;;;;;;5.70;99.90;;;;;;7339346;19;108246;-84
2022/12/27 00:05:10;;;;;;;;;;;5.70;99.90;;;;;;7338752;19;109708;-85
2022/12/27 00:07:37;;;;;;;;;;;5.70;99.90;;;;;;7337816;19;111948;-85
2022/12/27 00:10:05;;;;;;;;;;;5.70;99.90;;;;;;7340101;19;108396;-85
2022/12/27 00:12:32;;;;;;;;;;;5.80;99.90;;;;;;7336286;19;108892;-85
2022/12/27 00:14:59;;;;;;;;;;;5.80;99.90;;;;;;7337573;19;109895;-85
2022/12/27 00:17:27;;;;;;;;;;;5.80;99.90;;;;;;7336364;19;109012;-84
2022/12/27 00:19:54;;;;;;;;;;;5.80;99.90;;;;;;7343019;19;111835;-85
2022/12/27 00:22:21;;;;;;;;;;;5.80;99.90;;;;;;7335646;19;110241;-85
2022/12/27 00:24:48;;;;;;;;;;;5.80;99.90;;;;;;7339142;19;109311;-85
2022/12/27 00:27:15;;;;;;;;;;;5.80;99.90;;;;;;7336258;19;110667;-85
2022/12/27 00:29:42;;;;;;;;;;;5.80;99.90;;;;;;7338817;19;113220;-85
2022/12/27 00:32:09;;;;;;;;;;;5.80;99.90;;;;;;7336804;19;109374;-85
2022/12/27 00:34:36;;;;;;;;;;;5.80;99.90;;;;;;7337124;19;110394;-84
2022/12/27 00:37:03;;;;;;;;;;;5.80;99.90;;;;;;7336388;19;108496;-85
2022/12/27 00:39:30;;;;;;;;;;;5.80;99.90;;;;;;7336462;19;108961;-85
2022/12/27 00:41:57;;;;;;;;;;;5.80;99.90;;;;;;7343317;19;111330;-85
2022/12/27 00:44:23;;;;;;;;;;;5.80;99.90;;;;;;7334983;19;109308;-84
2022/12/27 00:46:50;;;;;;;;;;;5.90;99.90;;;;;;7338141;19;109659;-84
2022/12/27 00:49:17;;;;;;;;;;;5.80;99.90;;;;;;7338677;19;110826;-83
2022/12/27 00:51:44;;;;;;;;;;;5.80;99.90;;;;;;7336999;19;112857;-85
2022/12/27 00:54:11;;;;;;;;;;;5.80;99.90;;;;;;7337589;19;110820;-85
2022/12/27 00:56:38;;;;;;;;;;;5.80;99.90;;;;;;7336590;19;109072;-84
2022/12/27 00:59:05;;;;;;;;;;;5.80;99.90;;;;;;7337236;19;108878;-84
2022/12/27 01:01:33;;;;;;;;;;;5.80;99.90;;;;;;7333335;19;112843;-85
2022/12/27 01:04:01;;;;;;;;;;;5.80;99.90;;;;;;7341893;19;109075;-85
2022/12/27 01:06:31;;;;;;;;;;;5.90;99.90;;;;;;7334413;19;111289;-85
2022/12/27 01:08:58;;;;;;;;;;;5.80;99.90;;;;;;7335154;19;108425;-85
2022/12/27 01:11:27;;;;;;;;;;;5.80;99.90;;;;;;7336146;19;112552;-85
2022/12/27 01:13:55;;;;;;;;;;;5.80;99.90;;;;;;7336177;19;112311;-85
2022/12/27 01:16:22;;;;;;;;;;;5.80;99.90;;;;;;7333826;19;108519;-85
2022/12/27 01:18:49;;;;;;;;;;;5.80;99.90;;;;;;7337720;19;112439;-85
2022/12/27 01:21:18;;;;;;;;;;;5.80;99.90;;;;;;7333495;19;110309;-85
2022/12/27 01:23:46;;;;;;;;;;;5.80;99.90;;;;;;7337783;19;108658;-84
2022/12/27 01:26:14;;;;;;;;;;;5.80;99.90;;;;;;7340326;19;109342;-84
2022/12/27 01:28:41;;;;;;;;;;;5.80;99.90;;;;;;7334066;19;109021;-85
2022/12/27 01:31:11;;;;;;;;;;;5.80;99.90;;;;;;7335666;19;109324;-85
2022/12/27 01:33:38;;;;;;;;;;;5.80;99.90;;;;;;7337340;19;110315;-85
2022/12/27 01:36:14;;;;;;;;;;;5.80;99.90;;;;;;7335259;19;109801;-84
2022/12/27 01:38:46;;;;;;;;;;;5.80;99.90;;;;;;7336571;19;109687;-85
2022/12/27 01:44:29;;;;;;;;;;;5.80;99.90;;;;;;7335878;19;109566;-85
2022/12/27 01:46:56;;;;;;;;;;;5.80;99.90;;;;;;7341083;19;109949;-85
2022/12/27 01:49:23;;;;;;;;;;;5.80;99.90;;;;;;7332946;19;108754;-85
2022/12/27 01:51:50;;;;;;;;;;;5.80;99.90;;;;;;7336134;19;109632;-85
2022/12/27 01:54:17;;;;;;;;;;;5.80;99.90;;;;;;7333293;19;114828;-85
2022/12/27 01:56:44;;;;;;;;;;;5.80;99.90;;;;;;7335187;19;108460;-85
2022/12/27 01:59:13;;;;;;;;;;;5.80;99.90;;;;;;7334531;19;108919;-85
2022/12/27 02:01:42;;;;;;;;;;;5.80;99.90;;;;;;7334505;19;110054;-85
2022/12/27 02:04:19;;;;;;;;;;;5.80;99.90;;;;;;7335681;19;110384;-85
2022/12/27 02:06:46;;;;;;;;;;;5.80;99.90;;;;;;7333395;19;109783;-85
2022/12/27 02:09:21;;;;;;;;;;;5.80;99.90;;;;;;7338948;19;129368;-85
2022/12/27 02:11:51;;;;;;;;;;;5.80;99.90;;;;;;7333737;19;109689;-85
2022/12/27 02:14:34;;;;;;;;;;;5.80;99.90;;;;;;7333663;19;109928;-85
2022/12/27 02:17:02;;;;;;;;;;;5.80;99.90;;;;;;7334299;19;108566;-85
2022/12/27 02:19:35;;;;;;;;;;;5.80;99.90;;;;;;7332819;19;109201;-84
2022/12/27 02:22:21;;;;;;;;;;;5.80;99.90;;;;;;7335360;19;110909;-85
2022/12/27 02:25:02;;;;;;;;;;;5.80;99.90;;;;;;7337118;19;109268;-85
2022/12/27 02:27:29;;;;;;;;;;;5.80;99.90;;;;;;7333386;19;109005;-85
2022/12/27 02:30:01;;;;;;;;;;;5.70;99.90;;;;;;7336358;19;113712;-85
2022/12/27 02:32:51;;;;;;;;;;;5.70;99.90;;;;;;7338168;19;108562;-84
2022/12/27 02:35:39;;;;;;;;;;;5.70;99.90;;;;;;7332309;19;110740;-85
2022/12/27 02:38:09;;;;;;;;;;;5.70;99.90;;;;;;7333074;19;108982;-85
2022/12/27 02:54:34;;;;;;;;;;;5.60;99.90;;;;;;7332885;19;108766;-85
2022/12/27 02:57:16;;;;;;;;;;;5.60;99.90;;;;;;7341606;19;109210;-84
2022/12/27 03:05:40;;;;;;;;;;;5.60;99.90;;;;;;7341392;19;110217;-85
2022/12/27 03:08:07;;;;;;;;;;;5.60;99.90;;;;;;7342126;19;108985;-84
2022/12/27 03:16:21;;;;;;;;;;;5.60;99.90;;;;;;7340504;19;115232;-85
2022/12/27 03:18:53;;;;;;;;;;;5.50;99.90;;;;;;7339960;19;110207;-85
2022/12/27 03:27:20;;;;;;;;;;;5.60;99.90;;;;;;7340423;19;111373;-85
2022/12/27 03:33:11;;;;;;;;;;;5.60;99.90;;;;;;7338549;19;110322;-85
2022/12/27 03:35:40;;;;;;;;;;;5.50;99.90;;;;;;7337196;19;110904;-85
2022/12/27 03:38:09;;;;;;;;;;;5.60;99.90;;;;;;7338493;19;108275;-84
2022/12/27 03:40:37;;;;;;;;;;;5.60;99.90;;;;;;7340476;19;109285;-85
2022/12/27 03:43:11;;;;;;;;;;;5.50;99.90;;;;;;7335657;19;110556;-85
2022/12/27 03:48:52;;;;;;;;;;;5.60;99.90;;;;;;7338658;19;110651;-85
2022/12/27 03:51:20;;;;;;;;;;;5.60;99.90;;;;;;7339206;19;109536;-86
2022/12/27 03:53:49;;;;;;;;;;;5.60;99.90;;;;;;7339531;19;109686;-86
2022/12/27 03:56:16;;;;;;;;;;;5.50;99.90;;;;;;7335640;19;110601;-85
2022/12/27 03:58:43;;;;;;;;;;;5.50;99.90;;;;;;7339440;19;108803;-84
2022/12/27 04:01:11;;;;;;;;;;;5.60;99.90;;;;;;7333605;19;109682;-83
2022/12/27 04:03:38;;;;;;;;;;;5.50;99.90;;;;;;7337336;19;109223;-84
2022/12/27 04:06:05;;;;;;;;;;;5.60;99.90;;;;;;7341411;19;109007;-84
2022/12/27 04:36:07;;;;;;;;;;;5.60;99.90;;;;;;7339432;19;110787;-83
2022/12/27 04:38:33;;;;;;;;;;;5.70;99.90;;;;;;7337698;19;110201;-83
2022/12/27 04:54:57;;;;;;;;;;;5.60;99.90;;;;;;7341620;19;109945;-84
2022/12/27 04:57:24;;;;;;;;;;;5.70;99.90;;;;;;7336904;19;110123;-84
2022/12/27 05:02:37;;;;;;;;;;;5.60;99.90;;;;;;7336099;19;109908;-84
2022/12/27 05:05:04;;;;;;;;;;;5.60;99.90;;;;;;7336758;19;108961;-84
2022/12/27 05:15:48;;;;;;;;;;;5.60;99.90;;;;;;7338294;19;110577;-85
2022/12/27 05:18:15;;;;;;;;;;;5.60;99.90;;;;;;7341631;19;108749;-83
2022/12/27 05:20:42;;;;;;;;;;;5.60;99.90;;;;;;7336815;19;110330;-83
2022/12/27 05:25:54;;;;;;;;;;;5.60;99.90;;;;;;7337421;19;112062;-84
2022/12/27 05:28:21;;;;;;;;;;;5.50;99.90;;;;;;7333368;19;110733;-83
2022/12/27 05:30:48;;;;;;;;;;;5.60;99.90;;;;;;7335003;19;108671;-83
2022/12/27 05:33:15;;;;;;;;;;;5.50;99.90;;;;;;7335571;19;109681;-83
2022/12/27 05:35:42;;;;;;;;;;;5.50;99.90;;;;;;7335977;19;109636;-84
2022/12/27 05:38:11;;;;;;;;;;;5.50;99.90;;;;;;7335760;19;108929;-84
2022/12/27 05:40:38;;;;;;;;;;;5.50;99.90;;;;;;7343199;19;109827;-84
2022/12/27 05:43:04;;;;;;;;;;;5.50;99.90;;;;;;7337020;19;109128;-84
2022/12/27 05:45:31;;;;;;;;;;;5.50;99.90;;;;;;7335217;19;109408;-84
2022/12/27 05:47:58;;;;;;;;;;;5.50;99.90;;;;;;7336962;19;110845;-84
2022/12/27 05:50:26;;;;;;;;;;;5.50;99.90;;;;;;7334160;19;109077;-84
2022/12/27 05:52:54;;;;;;;;;;;5.50;99.90;;;;;;7334036;19;109999;-84
2022/12/27 05:55:21;;;;;;;;;;;5.50;99.90;;;;;;7334378;19;110287;-83
2022/12/27 05:57:48;;;;;;;;;;;5.50;99.90;;;;;;7337464;19;109475;-84
2022/12/27 06:00:15;;;;;;;;;;;5.50;99.90;;;;;;7332854;19;109183;-83
2022/12/27 06:02:43;;;;;;;;;;;5.50;99.90;;;;;;7340065;19;110215;-83
2022/12/27 06:05:11;;;;;;;;;;;5.50;99.90;;;;;;7331290;19;109899;-83
2022/12/27 06:07:38;;;;;;;;;;;5.50;99.90;;;;;;7332907;19;110696;-83
2022/12/27 06:10:06;;;;;;;;;;;5.50;99.90;;;;;;7335868;19;109505;-84
2022/12/27 06:12:33;;;;;;;;;;;5.50;99.90;;;;;;7334272;19;108277;-84
2022/12/27 06:15:00;;;;;;;;;;;5.50;99.90;;;;;;7332090;19;109328;-83
2022/12/27 06:17:27;;;;;;;;;;;5.50;99.90;;;;;;7336171;19;109243;-84
2022/12/27 06:19:54;;;;;;;;;;;5.50;99.90;;;;;;7334637;19;108275;-84
2022/12/27 06:22:23;;;;;;;;;;;5.50;99.90;;;;;;7337034;19;110455;-83
2022/12/27 06:24:50;;;;;;;;;;;5.50;99.90;;;;;;7336017;19;109417;-84
2022/12/27 06:27:16;;;;;;;;;;;5.50;99.90;;;;;;7333299;19;110292;-83
2022/12/27 06:29:43;;;;;;;;;;;5.50;99.90;;;;;;7332687;19;111389;-84
2022/12/27 06:32:10;;;;;;;;;;;5.50;99.90;;;;;;7333065;19;109192;-83
2022/12/27 06:34:37;;;;;;;;;;;5.50;99.90;;;;;;7334942;19;115260;-84
2022/12/27 06:37:04;;;;;;;;;;;5.50;99.90;;;;;;7341764;19;108585;-84
2022/12/27 06:39:31;;;;;;;;;;;5.50;99.90;;;;;;7341962;19;110006;-84
2022/12/27 06:41:58;;;;;;;;;;;5.50;99.90;;;;;;7341340;19;110178;-83
2022/12/27 06:44:25;;;;;;;;;;;5.50;99.90;;;;;;7346213;19;108268;-84
2022/12/27 06:46:52;;;;;;;;;;;5.50;99.90;;;;;;7339916;19;110156;-84
2022/12/27 06:49:19;;;;;;;;;;;5.50;99.90;;;;;;7342323;19;108901;-84
2022/12/27 06:51:47;;;;;;;;;;;5.50;99.90;;;;;;7342824;19;110087;-84
2022/12/27 06:54:21;;;;;;;;;;;5.50;99.90;;;;;;7340633;19;109653;-84
2022/12/27 06:56:48;;;;;;;;;;;5.50;99.90;;;;;;7342592;19;108702;-86
2022/12/27 06:59:15;;;;;;;;;;;5.40;99.90;;;;;;7338355;19;110272;-84
2022/12/27 07:01:42;;;;;;;;;;;5.40;99.90;;;;;;7340824;19;110562;-85
2022/12/27 07:04:09;;;;;;;;;;;5.50;99.90;;;;;;7338103;19;109773;-84
2022/12/27 07:06:36;;;;;;;;;;;5.50;99.90;;;;;;7345662;19;109146;-84
2022/12/27 07:09:04;;;;;;;;;;;5.50;99.90;;;;;;7341175;19;109242;-84
2022/12/27 07:11:31;;;;;;;;;;;5.40;99.90;;;;;;7339507;19;112167;-84
2022/12/27 07:13:58;;;;;;;;;;;5.40;99.90;;;;;;7339497;19;109757;-85
2022/12/27 07:16:26;;;;;;;;;;;5.40;99.90;;;;;;7337367;19;110929;-84
2022/12/27 07:18:54;;;;;;;;;;;5.40;99.90;;;;;;7340722;19;109893;-84
2022/12/27 07:21:22;;;;;;;;;;;5.40;99.90;;;;;;7338698;19;110809;-85
2022/12/27 07:23:50;;;;;;;;;;;5.40;99.90;;;;;;7337769;19;109563;-85
2022/12/27 07:26:18;;;;;;;;;;;5.40;99.90;;;;;;7338604;19;109623;-89
2022/12/27 07:28:45;;;;;;;;;;;5.40;99.90;;;;;;7344337;19;110049;-84
2022/12/27 07:31:14;;;;;;;;;;;5.40;99.90;;;;;;7340358;19;115307;-84
2022/12/27 07:33:41;;;;;;;;;;;5.30;99.90;;;;;;7339429;19;110041;-84
2022/12/27 07:36:11;;;;;;;;;;;5.40;99.90;;;;;;7339982;19;108318;-84
2022/12/27 07:38:38;;;;;;;;;;;5.30;99.90;;;;;;7341933;19;109203;-84
2022/12/27 07:41:05;;;;;;;;;;;5.30;99.90;;;;;;7338409;19;110563;-85
2022/12/27 07:43:33;;;;;;;;;;;5.30;99.90;;;;;;7339106;19;109376;-84
2022/12/27 07:46:03;;;;;;;;;;;5.30;99.90;;;;;;7336973;19;110559;-84
2022/12/27 07:48:31;;;;;;;;;;;5.30;99.90;;;;;;7335680;19;110239;-84
2022/12/27 07:50:58;;;;;;;;;;;5.30;99.90;;;;;;7346333;19;109235;-84
2022/12/27 07:53:25;;;;;;;;;;;5.30;99.90;;;;;;7337164;19;110785;-84
2022/12/27 07:55:52;;;;;;;;;;;5.30;99.90;;;;;;7340660;19;109202;-84
2022/12/27 07:58:20;;;;;;;;;;;5.30;99.90;;;;;;7338086;19;109747;-84
2022/12/27 08:00:48;;;;;;;;;;;5.30;99.90;;;;;;7339246;19;110261;-84
2022/12/27 08:03:15;;;;;;;;;;;5.30;99.90;;;;;;7338315;19;109139;-85
2022/12/27 08:05:51;;;;;;;;;;;5.40;99.90;;;;;;7338707;19;109162;-84
2022/12/27 08:08:19;;;;;;;;;;;5.30;99.90;;;;;;7334958;19;109378;-84
2022/12/27 08:10:46;;;;;;;;;;;5.40;99.90;;;;;;7339342;19;108939;-84
2022/12/27 08:13:13;;;;;;;;;;;5.30;99.90;;;;;;7342590;19;109893;-84
2022/12/27 08:15:41;;;;;;;;;;;5.40;99.90;;;;;;7339606;19;108511;-84
2022/12/27 08:18:08;;;;;;;;;;;5.40;99.90;;;;;;7338689;19;109283;-84
2022/12/27 08:20:35;;;;;;;;;;;5.50;99.90;;;;;;7336563;19;110562;-84
2022/12/27 08:23:02;;;;;;;;;;;5.50;99.90;;;;;;7336911;19;113597;-83
2022/12/27 08:25:29;;;;;;;;;;;5.60;99.90;;;;;;7338347;19;108853;-84
2022/12/27 08:28:06;;;;;;;;;;;5.60;99.90;;;;;;7339353;19;109335;-84
2022/12/27 08:30:33;;;;;;;;;;;5.60;99.90;;;;;;7336134;19;108696;-84
2022/12/27 08:33:01;;;;;;;;;;;5.70;99.90;;;;;;7342027;19;109132;-84
2022/12/27 08:35:28;;;;;;;;;;;5.70;99.90;;;;;;7338069;19;109511;-84
2022/12/27 08:38:15;;;;;;;;;;;5.70;99.90;;;;;;7337359;19;109908;-84
2022/12/27 08:40:43;;;;;;;;;;;5.80;99.90;;;;;;7337132;19;110685;-85
2022/12/27 08:43:10;;;;;;;;;;;5.80;99.90;;;;;;7338279;19;109730;-84
2022/12/27 08:45:38;;;;;;;;;;;5.80;99.90;;;;;;7338636;19;115113;-84
2022/12/27 08:48:05;;;;;;;;;;;5.90;99.90;;;;;;7337978;19;110415;-84
2022/12/27 08:50:32;;;;;;;;;;;5.90;99.90;;;;;;7335706;19;110366;-84
2022/12/27 08:53:00;;;;;;;;;;;5.90;99.90;;;;;;7338861;19;109347;-84
2022/12/27 08:55:27;;;;;;;;;;;6.00;99.90;;;;;;7341077;19;113498;-84
2022/12/27 08:57:58;;;;;;;;;;;6.00;99.90;;;;;;7338373;19;109631;-84
2022/12/27 09:00:25;;;;;;;;;;;6.00;99.90;;;;;;7337536;19;112103;-83
2022/12/27 09:02:53;;;;;;;;;;;6.10;99.90;;;;;;7338860;19;109352;-84
2022/12/27 09:05:20;;;;;;;;;;;6.10;99.90;;;;;;7336655;19;109421;-84
2022/12/27 09:07:48;;;;;;;;;;;6.20;99.90;;;;;;7338154;19;112824;-84
2022/12/27 09:10:15;;;;;;;;;;;6.20;99.90;;;;;;7335871;19;108550;-84
2022/12/27 09:12:42;;;;;;;;;;;6.20;99.90;;;;;;7338347;19;110513;-84
2022/12/27 09:15:09;;;;;;;;;;;6.20;99.90;;;;;;7334595;19;113313;-84
2022/12/27 09:17:36;;;;;;;;;;;6.30;99.90;;;;;;7342069;19;108867;-85
2022/12/27 09:20:03;;;;;;;;;;;6.30;99.90;;;;;;7338319;19;110358;-84
2022/12/27 09:22:30;;;;;;;;;;;6.30;99.90;;;;;;7340004;19;108712;-83
2022/12/27 09:24:57;;;;;;;;;;;6.40;99.90;;;;;;7342805;19;109253;-83
2022/12/27 09:27:25;;;;;;;;;;;6.40;99.90;;;;;;7338275;19;110236;-84
2022/12/27 09:29:51;;;;;;;;;;;6.50;99.90;;;;;;7337151;19;108581;-84
2022/12/27 09:32:18;;;;;;;;;;;6.50;99.90;;;;;;7335439;19;108229;-84
2022/12/27 09:34:45;;;;;;;;;;;6.60;99.90;;;;;;7338613;19;110658;-84
2022/12/27 09:37:12;;;;;;;;;;;6.60;99.90;;;;;;7336657;19;108568;-85
2022/12/27 09:39:39;;;;;;;;;;;6.70;99.90;;;;;;7343138;19;109715;-84
2022/12/27 09:42:25;;;;;;;;;;;6.70;99.90;;;;;;7334339;19;109378;-85
2022/12/27 09:45:18;;;;;;;;;;;6.80;99.90;;;;;;7335703;19;111124;-84
2022/12/27 09:47:49;;;;;;;;;;;6.80;99.90;;;;;;7336983;19;110526;-84
2022/12/27 09:50:24;;;;;;;;;;;6.90;99.90;;;;;;7333410;19;108342;-84
2022/12/27 09:52:58;;;;;;;;;;;7.00;99.90;;;;;;7336008;19;109215;-84
2022/12/27 09:55:33;;;;;;;;;;;7.00;99.90;;;;;;7335031;19;111609;-84
2022/12/27 09:58:11;;;;;;;;;;;7.00;99.90;;;;;;7335825;19;110725;-84
2022/12/27 10:00:38;;;;;;;;;;;7.10;99.90;;;;;;7337782;19;109105;-85
2022/12/27 10:03:11;;;;;;;;;;;7.20;99.90;;;;;;7339783;19;110690;-84
2022/12/27 10:05:41;;;;;;;;;;;7.30;99.90;;;;;;7336379;19;110430;-85
2022/12/27 10:08:08;;;;;;;;;;;7.30;99.90;;;;;;7334918;19;110278;-84
2022/12/27 10:10:53;;;;;;;;;;;7.40;99.90;;;;;;7334387;19;108564;-84
2022/12/27 10:13:26;;;;;;;;;;;7.40;99.90;;;;;;7335770;19;110079;-84
2022/12/27 10:15:53;;;;;;;;;;;7.50;99.90;;;;;;7337151;19;109797;-85
2022/12/27 10:18:20;;;;;;;;;;;7.60;99.90;;;;;;7336296;19;108570;-84
2022/12/27 10:20:54;;;;;;;;;;;7.60;99.90;;;;;;7336134;19;109211;-84
2022/12/27 10:23:23;;;;;;;;;;;7.60;99.90;;;;;;7331740;19;109142;-84
2022/12/27 10:25:55;;;;;;;;;;;7.70;99.90;;;;;;7341519;19;108756;-85
2022/12/27 10:28:27;;;;;;;;;;;7.70;99.90;;;;;;7333729;19;109913;-84
2022/12/27 10:30:54;;;;;;;;;;;7.70;99.90;;;;;;7334554;19;109034;-85
2022/12/27 10:33:26;;;;;;;;;;;7.80;99.90;;;;;;7334932;19;109560;-84
2022/12/27 10:35:53;;;;;;;;;;;7.80;99.90;;;;;;7329588;19;110293;-85
2022/12/27 10:38:20;;;;;;;;;;;7.80;99.90;;;;;;7333436;19;110261;-85
2022/12/27 10:41:06;;;;;;;;;;;7.90;99.90;;;;;;7333364;19;109106;-84
2022/12/27 10:43:39;;;;;;;;;;;7.90;99.90;;;;;;7330679;19;110314;-85
2022/12/27 10:46:19;;;;;;;;;;;7.90;99.90;;;;;;7337580;19;110233;-85
2022/12/27 10:48:54;;;;;;;;;;;8.00;99.90;;;;;;7331400;19;110930;-85
2022/12/27 10:51:42;;;;;;;;;;;8.00;99.90;;;;;;7334594;19;109256;-84
2022/12/27 10:54:11;;;;;;;;;;;8.10;99.90;;;;;;7335719;19;109203;-85
2022/12/27 10:56:40;;;;;;;;;;;8.20;99.90;;;;;;7334232;19;109323;-85
2022/12/27 10:59:17;;;;;;;;;;;8.30;99.90;;;;;;7334970;19;109054;-85
2022/12/27 11:01:45;;;;;;;;;;;8.40;99.90;;;;;;7335002;19;109319;-84
2022/12/27 11:04:19;;;;;;;;;;;8.50;99.90;;;;;;7331323;19;110100;-84
2022/12/27 11:07:07;;;;;;;;;;;8.50;99.90;;;;;;7332781;19;114452;-84
2022/12/27 11:09:35;;;;;;;;;;;8.60;99.90;;;;;;7335022;19;109358;-85
2022/12/27 11:12:17;;;;;;;;;;;8.60;99.90;;;;;;7331857;19;108435;-85
2022/12/27 11:14:53;;;;;;;;;;;8.60;99.90;;;;;;7334433;19;109195;-85
2022/12/27 11:17:46;;;;;;;;;;;8.60;99.90;;;;;;7332449;19;110583;-86
2022/12/27 11:20:22;;;;;;;;;;;8.60;99.90;;;;;;7333532;19;108296;-85
2022/12/27 11:23:01;;;;;;;;;;;8.60;99.90;;;;;;7333758;19;109558;-86
2022/12/27 11:25:28;;;;;;;;;;;8.70;99.90;;;;;;7334687;19;110513;-86
2022/12/27 11:27:59;;;;;;;;;;;8.80;99.90;;;;;;7337415;19;109347;-86
2022/12/27 11:30:39;;;;;;;;;;;8.80;99.90;;;;;;7335185;19;109497;-86
2022/12/27 11:33:22;;;;;;;;;;;8.80;99.90;;;;;;7342485;19;110268;-85
2022/12/27 11:35:52;;;;;;;;;;;8.90;99.90;;;;;;7332698;19;109185;-86
2022/12/27 11:38:24;;;;;;;;;;;8.90;99.90;;;;;;7331829;19;110661;-86
2022/12/27 11:41:14;;;;;;;;;;;8.90;99.90;;;;;;7339522;19;108411;-84
2022/12/27 11:43:57;;;;;;;;;;;8.90;99.90;;;;;;7337533;19;108640;-85
2022/12/27 11:46:26;;;;;;;;;;;8.90;99.90;;;;;;7339903;19;110551;-84
2022/12/27 11:48:56;;;;;;;;;;;9.00;99.90;;;;;;7340031;19;108737;-85
2022/12/27 11:51:41;;;;;;;;;;;9.00;99.90;;;;;;7337428;19;109879;-84
2022/12/27 11:54:08;;;;;;;;;;;8.90;99.90;;;;;;7338450;19;110529;-84
2022/12/27 11:56:40;;;;;;;;;;;9.00;99.90;;;;;;7343001;19;108495;-85
2022/12/27 11:59:07;;;;;;;;;;;8.90;99.90;;;;;;7340281;19;113149;-85
2022/12/27 12:01:43;;;;;;;;;;;9.00;99.90;;;;;;7338472;19;108651;-84
2022/12/27 12:04:29;;;;;;;;;;;9.00;99.90;;;;;;7343151;19;109135;-85
2022/12/27 12:06:57;;;;;;;;;;;8.90;99.90;;;;;;7339839;19;113932;-84
2022/12/27 12:09:41;;;;;;;;;;;9.00;99.90;;;;;;7338508;19;108533;-85
2022/12/27 12:12:08;;;;;;;;;;;9.00;99.90;;;;;;7340499;19;109468;-85
2022/12/27 12:14:59;;;;;;;;;;;9.00;99.90;;;;;;7339160;19;110168;-85
2022/12/27 12:17:32;;;;;;;;;;;9.00;99.90;;;;;;7337692;19;108460;-85
2022/12/27 12:20:20;;;;;;;;;;;9.10;99.90;;;;;;7347402;19;108700;-86
2022/12/27 12:23:03;;;;;;;;;;;9.10;99.90;;;;;;7338211;19;108963;-85
2022/12/27 12:25:43;;;;;;;;;;;9.10;99.90;;;;;;7339515;19;109411;-85
2022/12/27 12:28:29;;;;;;;;;;;9.10;99.90;;;;;;7337482;19;110485;-86
2022/12/27 12:31:25;;;;;;;;;;;9.10;99.90;;;;;;7337135;19;109119;-86
2022/12/27 12:34:13;;;;;;;;;;;9.10;99.90;;;;;;7338724;19;109235;-85
2022/12/27 12:36:43;;;;;;;;;;;9.20;99.90;;;;;;7337965;19;110329;-86
2022/12/27 12:39:35;;;;;;;;;;;9.20;99.90;;;;;;7337914;19;109037;-85
2022/12/27 12:42:24;;;;;;;;;;;9.20;99.90;;;;;;7343897;19;108964;-85
2022/12/27 12:45:04;;;;;;;;;;;9.30;99.90;;;;;;7338323;19;109246;-85
2022/12/27 12:47:48;;;;;;;;;;;9.30;99.90;;;;;;7337769;19;108958;-85
2022/12/27 12:50:38;;;;;;;;;;;9.30;99.90;;;;;;7337318;19;110619;-85
2022/12/27 12:53:21;;;;;;;;;;;9.30;99.90;;;;;;7338008;19;108819;-85
2022/12/27 12:56:05;;;;;;;;;;;9.30;99.90;;;;;;7337246;19;109155;-85
2022/12/27 12:58:51;;;;;;;;;;;9.40;99.90;;;;;;7336978;19;109579;-85
2022/12/27 13:01:36;;;;;;;;;;;9.30;99.90;;;;;;7338675;19;108664;-85
2022/12/27 13:04:19;;;;;;;;;;;9.30;99.90;;;;;;7339327;19;109398;-85
2022/12/27 13:06:45;;;;;;;;;;;9.30;99.90;;;;;;7343221;19;113780;-86
2022/12/27 13:09:28;;;;;;;;;;;9.30;99.90;;;;;;7337369;19;109577;-85
2022/12/27 13:11:54;;;;;;;;;;;9.30;99.90;;;;;;7337896;19;110174;-86
2022/12/27 13:14:27;;;;;;;;;;;9.30;99.90;;;;;;7337410;19;108438;-85
2022/12/27 13:17:00;;;;;;;;;;;9.30;99.90;;;;;;7338291;19;109054;-85
2022/12/27 13:19:27;;;;;;;;;;;9.30;99.90;;;;;;7335334;19;110618;-86
2022/12/27 13:22:17;;;;;;;;;;;9.30;99.90;;;;;;7337105;19;108354;-86
2022/12/27 13:24:44;;;;;;;;;;;9.40;99.90;;;;;;7333597;19;109489;-85
2022/12/27 13:27:29;;;;;;;;;;;9.40;99.90;;;;;;7331725;19;113045;-86
2022/12/27 13:30:18;;;;;;;;;;;9.30;99.90;;;;;;7338542;19;108325;-85
2022/12/27 13:33:03;;;;;;;;;;;9.40;99.90;;;;;;7331991;19;110088;-85
2022/12/27 13:35:48;;;;;;;;;;;9.40;99.90;;;;;;7332078;19;108554;-85
2022/12/27 13:38:42;;;;;;;;;;;9.50;99.90;;;;;;7332125;19;109088;-85
2022/12/27 13:41:24;;;;;;;;;;;9.40;99.90;;;;;;7332076;19;110711;-85
2022/12/27 13:43:59;;;;;;;;;;;9.40;99.90;;;;;;7331538;19;111472;-85
2022/12/27 13:46:26;;;;;;;;;;;9.40;99.90;;;;;;7331038;19;109495;-85
2022/12/27 13:48:59;;;;;;;;;;;9.40;99.90;;;;;;7334504;19;110217;-86
2022/12/27 13:51:44;;;;;;;;;;;9.40;99.90;;;;;;7331566;19;108394;-85
2022/12/27 13:54:20;;;;;;;;;;;9.40;99.90;;;;;;7338177;19;108556;-86
2022/12/27 13:56:57;;;;;;;;;;;9.40;99.90;;;;;;7332640;19;108798;-86
2022/12/27 13:59:33;;;;;;;;;;;9.40;99.90;;;;;;7331631;19;109388;-85
2022/12/27 14:02:11;;;;;;;;;;;9.40;99.90;;;;;;7332410;19;113598;-85
2022/12/27 14:04:50;;;;;;;;;;;9.40;99.90;;;;;;7337625;19;108845;-86
2022/12/27 14:07:54;;;;;;;;;;;9.50;99.90;;;;;;7335872;19;109231;-86
2022/12/27 14:10:41;;;;;;;;;;;9.50;99.90;;;;;;7332494;19;110267;-85
2022/12/27 14:13:09;;;;;;;;;;;9.60;99.90;;;;;;7334445;19;109190;-86
2022/12/27 14:15:55;;;;;;;;;;;9.60;99.90;;;;;;7335019;19;108992;-85
2022/12/27 14:18:31;;;;;;;;;;;9.60;99.90;;;;;;7340435;19;110113;-85
2022/12/27 14:21:16;;;;;;;;;;;9.60;99.90;;;;;;7335765;19;109278;-86
2022/12/27 14:23:53;;;;;;;;;;;9.70;99.90;;;;;;7336316;19;110358;-86
2022/12/27 14:26:39;;;;;;;;;;;9.70;99.90;;;;;;7334334;19;108948;-85
2022/12/27 14:29:17;;;;;;;;;;;9.80;99.90;;;;;;7334888;19;109216;-85
2022/12/27 14:32:03;;;;;;;;;;;9.90;99.90;;;;;;7333511;19;109637;-85
2022/12/27 14:34:42;;;;;;;;;;;10.00;99.90;;;;;;7332936;19;109145;-85
2022/12/27 14:37:22;;;;;;;;;;;10.00;99.90;;;;;;7336290;19;109615;-86
2022/12/27 14:40:00;;;;;;;;;;;10.00;99.90;;;;;;7334453;19;110503;-86
2022/12/27 14:42:50;;;;;;;;;;;10.10;99.90;;;;;;7332166;19;109313;-88
2022/12/27 14:45:32;;;;;;;;;;;10.40;99.90;;;;;;7328681;19;110349;-87
2022/12/27 14:47:59;;;;;;;;;;;10.80;99.90;;;;;;7332169;19;109153;-88
2022/12/27 14:50:42;;;;;;;;;;;11.00;99.90;;;;;;7334736;19;108739;-89
2022/12/27 14:53:09;;;;;;;;;;;11.10;99.90;;;;;;7333562;19;109505;-88
2022/12/27 14:55:51;;;;;;;;;;;11.20;99.90;;;;;;7334634;19;108516;-88
2022/12/27 14:58:27;;;;;;;;;;;11.30;99.90;;;;;;7344240;19;109345;-89
2022/12/27 15:01:12;;;;;;;;;;;11.30;99.90;;;;;;7342495;19;110043;-87
2022/12/27 15:03:53;;;;;;;;;;;11.30;99.90;;;;;;7346063;19;108981;-88
2022/12/27 15:06:39;;;;;;;;;;;11.30;99.90;;;;;;7339094;19;110504;-88
2022/12/27 15:09:10;;;;;;;;;;;11.30;99.90;;;;;;7342431;19;109492;-88
2022/12/27 15:11:37;;;;;;;;;;;11.30;99.90;;;;;;7340624;19;109375;-88
2022/12/27 15:14:06;;;;;;;;;;;11.30;99.90;;;;;;7340870;19;109624;-88
2022/12/27 15:16:45;;;;;;;;;;;11.30;99.90;;;;;;7339661;19;108462;-88
2022/12/27 15:19:12;;;;;;;;;;;11.20;99.90;;;;;;7341514;19;111347;-88
2022/12/27 15:22:09;;;;;;;;;;;11.20;99.90;;;;;;7340720;19;109262;-88
2022/12/27 15:24:48;;;;;;;;;;;11.10;99.90;;;;;;7335697;19;109177;-89
2022/12/27 15:27:25;;;;;;;;;;;11.00;99.90;;;;;;7343684;19;109506;-88
2022/12/27 15:30:04;;;;;;;;;;;11.00;99.90;;;;;;7337916;19;109135;-87
2022/12/27 15:32:39;;;;;;;;;;;11.00;99.90;;;;;;7337366;19;109939;-88
2022/12/27 15:35:25;;;;;;;;;;;11.00;99.90;;;;;;7337366;19;110601;-88
2022/12/27 15:37:54;;;;;;;;;;;10.90;99.90;;;;;;7337390;19;108607;-89
2022/12/27 15:40:30;;;;;;;;;;;10.80;99.90;;;;;;7337398;19;108895;-88
2022/12/27 15:42:57;;;;;;;;;;;10.80;99.90;;;;;;7337311;19;109097;-89
2022/12/27 15:45:35;;;;;;;;;;;10.70;99.90;;;;;;7335913;19;109275;-89
2022/12/27 15:48:21;;;;;;;;;;;10.70;99.90;;;;;;7336413;19;112155;-89
2022/12/27 15:51:08;;;;;;;;;;;10.60;99.90;;;;;;7343276;19;110810;-88
2022/12/27 15:53:53;;;;;;;;;;;10.60;99.90;;;;;;7335189;19;109398;-88
2022/12/27 15:56:32;;;;;;;;;;;10.50;99.90;;;;;;7336442;19;110408;-88
2022/12/27 15:59:17;;;;;;;;;;;10.40;99.90;;;;;;7335262;19;109050;-87
2022/12/27 16:01:44;;;;;;;;;;;10.40;99.90;;;;;;7338348;19;108833;-87
2022/12/27 16:04:30;;;;;;;;;;;10.40;99.90;;;;;;7339511;19;110210;-88
2022/12/27 16:06:57;;;;;;;;;;;10.30;99.90;;;;;;7337521;19;108414;-88
2022/12/27 16:09:34;;;;;;;;;;;10.30;99.90;;;;;;7338227;19;109131;-87
2022/12/27 16:12:07;;;;;;;;;;;10.20;99.90;;;;;;7338742;19;113365;-87
2022/12/27 16:14:35;;;;;;;;;;;10.20;99.90;;;;;;7341428;19;108624;-87
2022/12/27 16:17:21;;;;;;;;;;;10.10;99.90;;;;;;7339629;19;113624;-86
2022/12/27 16:19:55;;;;;;;;;;;10.10;99.90;;;;;;7337942;19;108639;-86
2022/12/27 16:22:24;;;;;;;;;;;10.10;99.90;;;;;;7337311;19;109186;-86